Time;durP1;ratioP1;P1;durP2;ratioP2;P2;SDS_P1;SDS_P2;PMS_P1;PMS_P2;Temp;Humidity;BMP_temperature;BMP_pressure;BME280_temperature;BME280_humidity;BME280_pressure;Samples;Min_cycle;Max_cycle;Signal;HPM_P1;HPM_P2
2022/04/09 00:01:19;;;;;;;12.32;4.50;;;3.50;99.90;;;;;;5068258;28;20025;-83
2022/04/09 00:03:45;;;;;;;9.63;5.18;;;;;;;;;;5063903;28;20040;-83
2022/04/09 00:06:14;;;;;;;10.88;5.65;;;;;;;;;;5089874;28;20119;-85
2022/04/09 00:08:40;;;;;;;13.73;6.35;;;;;;;;;;5091307;28;20119;-84
2022/04/09 00:11:06;;;;;;;10.35;5.32;;;;;;;;;;5077741;28;20154;-86
2022/04/09 00:13:32;;;;;;;10.15;5.40;;;;;;;;;;5099966;28;20039;-82
2022/04/09 00:16:01;;;;;;;12.23;5.03;;;;;;;;;;5095095;28;20464;-83
2022/04/09 00:18:27;;;;;;;9.65;5.10;;;;;;;;;;5082018;28;20599;-82
2022/04/09 00:21:20;;;;;;;9.82;4.47;;;3.50;99.90;;;;;;5103179;28;20039;-84
2022/04/09 00:23:46;;;;;;;10.48;5.13;;;;;;;;;;5087833;28;20063;-81
2022/04/09 00:26:15;;;;;;;7.95;5.05;;;;;;;;;;5078603;28;20067;-81
2022/04/09 00:28:41;;;;;;;9.98;5.65;;;;;;;;;;5081209;28;20088;-86
2022/04/09 00:31:16;;;;;;;8.70;5.40;;;3.40;99.90;;;;;;5080862;28;20033;-83
2022/04/09 00:33:42;;;;;;;12.25;5.43;;;;;;;;;;5098046;28;20055;-83
2022/04/09 00:36:07;;;;;;;10.45;5.28;;;3.20;99.90;;;;;;5108815;22;20045;-80
2022/04/09 00:38:33;;;;;;;12.07;6.72;;;3.60;99.90;;;;;;5079622;28;20024;-79
2022/04/09 00:40:59;;;;;;;13.82;7.25;;;3.40;99.90;;;;;;5079079;28;20044;-80
2022/04/09 00:43:25;;;;;;;12.50;7.30;;;3.40;99.90;;;;;;5097119;28;20012;-79
2022/04/09 00:45:51;;;;;;;10.20;6.40;;;3.30;99.90;;;;;;5077114;28;20033;-80
2022/04/09 00:48:21;;;;;;;13.63;6.65;;;3.30;99.90;;;;;;5068529;28;20367;-79
2022/04/09 00:50:47;;;;;;;11.32;7.18;;;3.40;99.90;;;;;;5082420;28;20032;-80
2022/04/09 00:53:15;;;;;;;15.30;7.40;;;3.30;99.90;;;;;;5091394;28;20028;-79
2022/04/09 00:58:28;;;;;;;12.07;7.15;;;3.30;99.90;;;;;;5081527;28;20043;-79
2022/04/09 01:00:55;;;;;;;14.98;7.68;;;;;;;;;;5077027;28;20039;-78
2022/04/09 01:03:21;;;;;;;12.38;7.72;;;;;;;;;;5081004;28;20478;-79
2022/04/09 01:05:50;;;;;;;13.18;7.40;;;3.40;99.90;;;;;;5078795;28;20043;-79
2022/04/09 01:08:16;;;;;;;13.25;7.35;;;3.30;99.90;;;;;;5088708;28;20000;-79
2022/04/09 01:10:46;;;;;;;13.25;7.78;;;3.40;99.90;;;;;;5094887;28;20036;-79
2022/04/09 01:13:12;;;;;;;13.82;8.55;;;;;;;;;;5081112;28;20020;-79
2022/04/09 01:15:43;;;;;;;14.13;8.13;;;3.40;99.90;;;;;;5102985;28;20043;-80
2022/04/09 01:18:22;;;;;;;13.02;8.10;;;3.40;99.90;;;;;;5066262;28;20097;-79
2022/04/09 01:21:39;;;;;;;15.32;8.25;;;3.50;99.90;;;;;;5093992;28;20036;-80
2022/04/09 01:24:37;;;;;;;15.13;7.80;;;3.50;99.90;;;;;;5095031;28;20052;-79
2022/04/09 01:27:25;;;;;;;11.43;6.45;;;3.50;99.90;;;;;;5069868;28;20066;-81
2022/04/09 01:30:24;;;;;;;12.57;8.05;;;3.60;99.90;;;;;;5082593;28;20434;-79
2022/04/09 01:33:31;;;;;;;13.32;7.60;;;3.50;99.90;;;;;;5085688;28;20024;-78
2022/04/09 01:36:47;;;;;;;13.55;7.80;;;3.60;99.90;;;;;;5081491;28;20084;-79
2022/04/09 01:40:20;;;;;;;16.08;8.13;;;3.60;99.90;;;;;;5079897;28;20039;-78
2022/04/09 01:43:07;;;;;;;14.35;8.43;;;4.10;99.90;;;;;;5063013;28;20033;-78
2022/04/09 01:49:07;;;;;;;13.93;8.63;;;3.60;99.90;;;;;;5052107;28;20397;-79
2022/04/09 01:52:03;;;;;;;16.17;8.57;;;3.60;99.90;;;;;;5063164;28;20039;-79
2022/04/09 01:58:49;;;;;;;26.00;13.02;;;3.60;99.90;;;;;;5076476;28;20103;-78
2022/04/09 02:02:18;;;;;;;14.30;8.68;;;3.60;99.90;;;;;;5040495;28;20119;-78
2022/04/09 02:10:59;;;;;;;16.45;9.70;;;3.60;99.90;;;;;;5075945;28;19998;-78
2022/04/09 02:13:37;;;;;;;14.98;9.02;;;3.60;99.90;;;;;;5061510;28;20021;-77
2022/04/09 02:19:38;;;;;;;17.77;10.30;;;3.60;99.90;;;;;;5080832;28;20497;-79
2022/04/09 02:29:48;;;;;;;19.63;10.15;;;3.60;99.90;;;;;;5079915;28;20027;-77
2022/04/09 02:33:06;;;;;;;18.02;10.73;;;3.60;99.90;;;;;;5072064;28;20299;-78
2022/04/09 02:36:05;;;;;;;21.98;10.63;;;;;;;;;;5079044;28;20639;-78
2022/04/09 02:46:34;;;;;;;17.95;11.02;;;3.40;99.90;;;;;;5038562;28;20100;-77
2022/04/09 02:49:27;;;;;;;23.23;11.85;;;3.40;99.90;;;;;;5023454;28;20060;-78
2022/04/09 02:52:56;;;;;;;21.98;12.68;;;3.40;99.90;;;;;;5029131;28;20033;-78
2022/04/09 02:55:43;;;;;;;24.30;12.77;;;3.40;99.90;;;;;;5020471;28;20057;-78
2022/04/09 02:58:51;;;;;;;21.48;12.25;;;3.40;99.90;;;;;;5017140;28;20046;-75
2022/04/09 03:02:05;;;;;;;21.70;11.88;;;3.40;99.90;;;;;;4967040;28;20034;-79
2022/04/09 03:08:10;;;;;;;20.38;11.32;;;3.40;99.90;;;;;;5030964;28;19991;-78
2022/04/09 03:11:02;;;;;;;21.83;10.98;;;3.30;99.90;;;;;;5047092;28;20039;-77
2022/04/09 03:17:56;;;;;;;20.17;11.15;;;3.30;99.90;;;;;;5053828;28;20032;-78
2022/04/09 03:24:14;;;;;;;;;;;3.20;99.90;;;;;;5037914;28;20033;-78
2022/04/09 03:27:31;;;;;;;17.15;10.75;;;3.20;99.90;;;;;;5055887;28;20325;-77
2022/04/09 03:29:57;;;;;;;18.95;11.15;;;3.20;99.90;;;;;;5084338;28;20055;-76
2022/04/09 03:36:35;;;;;;;20.45;12.48;;;3.10;99.90;;;;;;5050150;28;20075;-76
2022/04/09 03:39:18;;;;;;;23.27;11.18;;;3.10;99.90;;;;;;5070963;28;20410;-78
2022/04/09 03:46:10;;;;;;;20.00;12.38;;;3.10;99.90;;;;;;5077277;28;20071;-76
2022/04/09 03:49:18;;;;;;;26.17;12.98;;;3.10;99.90;;;;;;5089609;28;20036;-77
2022/04/09 03:59:35;;;;;;;23.27;11.70;;;3.10;99.90;;;;;;5076776;28;20075;-77
2022/04/09 04:02:42;;;;;;;20.67;12.82;;;3.10;99.90;;;;;;5095565;28;20032;-77
2022/04/09 04:05:48;;;;;;;18.65;10.82;;;3.10;99.90;;;;;;5042524;28;20047;-80
2022/04/09 04:11:37;;;;;;;24.83;13.38;;;3.10;99.90;;;;;;5057914;28;20028;-77
2022/04/09 04:14:48;;;;;;;20.33;11.70;;;3.00;99.90;;;;;;5078065;28;20032;-77
2022/04/09 04:21:42;;;;;;;25.23;13.10;;;3.00;99.90;;;;;;5056437;28;20024;-78
2022/04/09 04:25:04;;;;;;;23.90;12.88;;;2.90;99.90;;;;;;5009084;28;20089;-80
2022/04/09 04:28:08;;;;;;;26.55;13.45;;;2.90;99.90;;;;;;5047942;28;20032;-79
2022/04/09 04:34:51;;;;;;;22.33;12.13;;;2.90;99.90;;;;;;5048716;28;20646;-79
2022/04/09 04:38:07;;;;;;;21.67;11.80;;;3.00;99.90;;;;;;5044583;28;20067;-77
2022/04/09 04:41:37;;;;;;;21.23;12.60;;;3.10;99.90;;;;;;5063821;28;20401;-78
2022/04/09 04:44:19;;;;;;;23.02;12.00;;;3.10;99.90;;;;;;5072667;28;20029;-78
2022/04/09 04:50:48;;;;;;;26.02;11.80;;;3.20;99.90;;;;;;5074139;28;20086;-78
2022/04/09 04:53:37;;;;;;;21.95;12.32;;;3.20;99.90;;;;;;5048400;28;20124;-77
2022/04/09 04:59:47;;;;;;;23.58;12.20;;;;;;;;;;5050586;28;20021;-77
2022/04/09 05:06:31;;;;;;;20.95;11.63;;;3.10;99.90;;;;;;5035547;28;20077;-78
2022/04/09 05:09:41;;;;;;;22.38;12.32;;;3.10;99.90;;;;;;5035824;28;20044;-79
2022/04/09 05:12:26;;;;;;;22.77;12.00;;;;;;;;;;5034230;28;20034;-79
2022/04/09 05:15:32;;;;;;;25.35;12.82;;;3.00;99.90;;;;;;5057955;28;20044;-78
2022/04/09 05:18:28;;;;;;;23.38;12.60;;;3.10;99.90;;;;;;5064079;28;20065;-78
2022/04/09 05:21:59;;;;;;;23.40;12.18;;;3.10;99.90;;;;;;5073112;28;20033;-79
2022/04/09 05:24:35;;;;;;;;;;;3.10;99.90;;;;;;5091040;28;20047;-79
2022/04/09 05:27:03;;;;;;;21.00;11.50;;;;;;;;;;5099168;28;19936;-79
2022/04/09 05:32:48;;;;;;;22.52;11.85;;;;;;;;;;5077895;28;20061;-78
2022/04/09 05:35:16;;;;;;;19.60;11.73;;;;;;;;;;5090026;28;20036;-78
2022/04/09 05:38:05;;;;;;;21.17;12.13;;;3.30;99.90;;;;;;5098709;23;20035;-80
2022/04/09 05:40:33;;;;;;;18.65;11.35;;;3.30;99.90;;;;;;5049252;28;20028;-80
2022/04/09 05:46:04;;;;;;;20.73;12.07;;;;;;;;;;5075974;28;20063;-80
2022/04/09 05:48:30;;;;;;;20.23;11.93;;;;;;;;;;5041139;28;20024;-79
2022/04/09 05:50:56;;;;;;;20.23;11.70;;;;;;;;;;5082883;28;20168;-79
2022/04/09 05:53:25;;;;;;;20.48;11.55;;;;;;;;;;5091139;28;20020;-78
2022/04/09 05:55:52;;;;;;;17.95;11.07;;;;;;;;;;5085563;28;20015;-78
2022/04/09 05:58:21;;;;;;;24.58;12.27;;;3.50;99.90;;;;;;5068328;28;20024;-77
2022/04/09 06:00:47;;;;;;;23.75;12.13;;;;;;;;;;5065761;28;20036;-77
2022/04/09 06:03:14;;;;;;;21.10;11.90;;;3.60;99.90;;;;;;5072301;28;20322;-78
2022/04/09 06:05:39;;;;;;;23.70;11.65;;;3.70;99.90;;;;;;5056891;28;20033;-78
2022/04/09 06:08:05;;;;;;;20.20;11.57;;;;;;;;;;5072018;28;20028;-78
2022/04/09 06:10:32;;;;;;;21.70;10.98;;;3.90;99.90;;;;;;5074296;28;20025;-79
2022/04/09 06:12:58;;;;;;;22.33;12.48;;;;;;;;;;5069669;28;20101;-78
2022/04/09 06:15:24;;;;;;;20.52;11.23;;;;;;;;;;5067373;28;20465;-77
2022/04/09 06:17:50;;;;;;;16.98;10.68;;;4.20;99.90;;;;;;5058006;28;20522;-78
2022/04/09 06:20:16;;;;;;;23.25;12.27;;;;;;;;;;5064325;28;20044;-78
2022/04/09 06:22:42;;;;;;;17.52;11.00;;;;;;;;;;5079872;28;20039;-79
2022/04/09 06:25:08;;;;;;;19.05;10.57;;;4.10;99.90;;;;;;5051716;28;20083;-79
2022/04/09 06:27:41;;;;;;;21.40;11.38;;;4.30;99.90;;;;;;5062777;28;20028;-79
2022/04/09 06:30:08;;;;;;;18.30;11.70;;;6.10;99.90;;;;;;5059494;28;20196;-79
2022/04/09 06:32:34;;;;;;;18.00;11.38;;;4.30;99.90;;;;;;5059842;28;20640;-80
2022/04/09 06:34:59;;;;;;;21.15;11.57;;;4.30;99.90;;;;;;5081959;28;20097;-78
2022/04/09 06:37:25;;;;;;;19.58;11.18;;;4.40;99.90;;;;;;5079454;28;20059;-78
2022/04/09 06:39:51;;;;;;;23.00;12.13;;;4.40;99.90;;;;;;5072349;23;20108;-79
2022/04/09 06:42:16;;;;;;;19.42;11.27;;;4.40;99.90;;;;;;5031951;28;20111;-79
2022/04/09 06:44:42;;;;;;;23.63;12.52;;;4.30;99.90;;;;;;5034547;28;20051;-79
2022/04/09 06:47:08;;;;;;;20.23;10.77;;;4.20;99.90;;;;;;5010973;28;20462;-80
2022/04/09 06:49:36;;;;;;;19.15;10.80;;;4.30;99.90;;;;;;5017233;28;20030;-79
2022/04/09 06:52:02;;;;;;;20.95;11.02;;;;;;;;;;5016174;28;20022;-81
2022/04/09 06:54:28;;;;;;;19.38;11.35;;;4.90;99.90;;;;;;5014389;28;20049;-81
2022/04/09 06:56:54;;;;;;;21.83;11.18;;;5.20;99.90;;;;;;5008244;28;20076;-83
2022/04/09 06:59:19;;;;;;;19.08;11.07;;;4.20;99.90;;;;;;5017493;28;20041;-83
2022/04/09 07:01:45;;;;;;;18.40;10.32;;;4.20;99.90;;;;;;5031632;28;20091;-81
2022/04/09 07:04:10;;;;;;;20.60;10.35;;;4.10;99.90;;;;;;4999063;28;20064;-79
2022/04/09 07:06:36;;;;;;;20.67;9.60;;;4.40;99.90;;;;;;5021176;28;20049;-79
2022/04/09 07:09:02;;;;;;;23.02;10.50;;;4.40;99.90;;;;;;5014180;28;20034;-79
2022/04/09 07:11:27;;;;;;;16.73;9.00;;;6.60;99.90;;;;;;5019307;28;20123;-79
2022/04/09 07:13:53;;;;;;;19.77;9.90;;;;;;;;;;5010431;28;20038;-79
2022/04/09 07:16:19;;;;;;;18.92;9.55;;;4.40;99.90;;;;;;5015170;28;20064;-82
2022/04/09 07:18:45;;;;;;;20.73;10.85;;;4.50;99.90;;;;;;5028832;28;20037;-82
2022/04/09 07:21:11;;;;;;;20.05;9.68;;;;;;;;;;5029990;28;20029;-79
2022/04/09 07:23:36;;;;;;;21.90;10.02;;;4.60;99.90;;;;;;5008446;28;20037;-79
2022/04/09 07:26:02;;;;;;;21.25;10.93;;;4.60;99.90;;;;;;5012818;28;20120;-79
2022/04/09 07:28:27;;;;;;;17.42;9.80;;;4.80;99.90;;;;;;5025966;28;20376;-82
2022/04/09 07:30:53;;;;;;;18.63;9.32;;;4.80;99.90;;;;;;5010742;28;20030;-79
2022/04/09 07:33:19;;;;;;;19.75;9.55;;;;;;;;;;5005276;28;20431;-81
2022/04/09 07:35:45;;;;;;;22.48;10.82;;;;;;;;;;5019007;28;20040;-79
2022/04/09 07:38:11;;;;;;;16.45;9.75;;;;;;;;;;5024697;28;20113;-80
2022/04/09 07:40:37;;;;;;;17.60;9.48;;;5.00;99.90;;;;;;5022606;28;20085;-78
2022/04/09 07:43:03;;;;;;;19.77;10.05;;;5.10;99.90;;;;;;5011066;28;20120;-80
2022/04/09 07:45:29;;;;;;;22.70;9.35;;;5.10;99.90;;;;;;5012334;28;20443;-81
2022/04/09 07:47:57;;;;;;;19.02;9.98;;;5.30;99.90;;;;;;5013104;28;20022;-80
2022/04/09 07:50:23;;;;;;;24.73;10.20;;;;;;;;;;5029757;28;20049;-80
2022/04/09 07:52:49;;;;;;;20.77;10.15;;;;;;;;;;5030592;28;20069;-79
2022/04/09 07:55:16;;;;;;;18.92;9.80;;;5.30;99.90;;;;;;5026451;28;20057;-81
2022/04/09 07:57:50;;;;;;;27.98;11.07;;;5.30;99.90;;;;;;5015742;28;20034;-79
2022/04/09 08:00:17;;;;;;;20.80;9.38;;;5.40;99.90;;;;;;5033525;28;20025;-80
2022/04/09 08:02:43;;;;;;;20.17;10.32;;;5.50;99.90;;;;;;5017354;28;20093;-81
2022/04/09 08:05:12;;;;;;;21.55;10.90;;;6.10;99.90;;;;;;5019757;28;20057;-79
2022/04/09 08:07:39;;;;;;;16.63;9.80;;;5.50;99.90;;;;;;5006731;28;20029;-80
2022/04/09 08:10:05;;;;;;;14.73;8.43;;;5.50;99.90;;;;;;5014552;28;20060;-78
2022/04/09 08:12:31;;;;;;;17.15;8.98;;;5.50;99.90;;;;;;5010408;28;20097;-82
2022/04/09 08:14:57;;;;;;;21.30;9.48;;;5.70;99.90;;;;;;5015996;28;20053;-79
2022/04/09 08:17:22;;;;;;;18.90;8.85;;;5.70;99.90;;;;;;5031928;28;20605;-82
2022/04/09 08:19:49;;;;;;;21.60;9.07;;;;;;;;;;5037480;28;20040;-81
2022/04/09 08:22:16;;;;;;;13.20;7.80;;;5.90;99.90;;;;;;5036267;28;20026;-79
2022/04/09 08:24:43;;;;;;;18.92;9.52;;;;;;;;;;5014988;28;20029;-79
2022/04/09 08:27:09;;;;;;;18.25;9.80;;;5.90;99.90;;;;;;5012324;28;20033;-80
2022/04/09 08:29:38;;;;;;;22.05;9.77;;;5.80;99.90;;;;;;5015901;28;20032;-80
2022/04/09 08:32:04;;;;;;;18.75;9.80;;;5.90;99.90;;;;;;5037614;28;20034;-80
2022/04/09 08:34:35;;;;;;;21.08;10.98;;;6.00;99.90;;;;;;5033813;28;20037;-79
2022/04/09 08:37:01;;;;;;;17.92;9.93;;;;;;;;;;5017134;28;20025;-82
2022/04/09 08:39:27;;;;;;;18.90;9.75;;;6.20;99.90;;;;;;5018738;28;20049;-80
2022/04/09 08:41:53;;;;;;;21.05;10.95;;;;;;;;;;5025895;28;20030;-81
2022/04/09 08:44:19;;;;;;;21.00;10.98;;;6.20;99.90;;;;;;5027758;28;20045;-78
2022/04/09 08:46:46;;;;;;;28.73;10.45;;;;;;;;;;5033428;28;20029;-79
2022/04/09 08:49:12;;;;;;;18.08;9.48;;;;;;;;;;5030693;28;20177;-77
2022/04/09 08:51:39;;;;;;;21.27;9.60;;;6.20;99.90;;;;;;5014156;28;20026;-80
2022/04/09 08:54:04;;;;;;;22.58;10.73;;;6.20;99.90;;;;;;4999237;28;20077;-80
2022/04/09 08:56:35;;;;;;;19.88;9.05;;;6.20;99.90;;;;;;5012000;28;20037;-80
2022/04/09 08:59:01;;;;;;;19.77;9.25;;;6.20;99.90;;;;;;5033342;28;20037;-80
2022/04/09 09:01:28;;;;;;;20.08;11.32;;;6.30;99.90;;;;;;5030816;28;20050;-81
2022/04/09 09:03:54;;;;;;;21.33;10.43;;;7.10;99.90;;;;;;5024684;28;20037;-80
2022/04/09 09:06:30;;;;;;;17.35;10.18;;;6.40;99.90;;;;;;5023786;28;20029;-83
2022/04/09 09:09:01;;;;;;;22.30;10.90;;;6.70;99.90;;;;;;5018049;28;20022;-79
2022/04/09 09:11:28;;;;;;;18.92;10.32;;;6.70;99.90;;;;;;5019875;28;20586;-80
2022/04/09 09:13:58;;;;;;;22.38;10.35;;;6.80;99.90;;;;;;5040121;28;20136;-81
2022/04/09 09:16:25;;;;;;;17.88;9.75;;;6.70;99.90;;;;;;5019586;28;20033;-81
2022/04/09 09:18:53;;;;;;;16.88;8.95;;;6.90;99.90;;;;;;5027885;28;20620;-80
2022/04/09 09:21:23;;;;;;;17.23;8.73;;;7.00;99.90;;;;;;5039495;28;20029;-80
2022/04/09 09:23:52;;;;;;;19.40;9.43;;;7.10;99.90;;;;;;5036913;28;20022;-81
2022/04/09 09:26:22;;;;;;;16.65;8.70;;;7.10;99.90;;;;;;5033477;28;20059;-86
2022/04/09 09:28:55;;;;;;;15.80;8.18;;;7.00;99.90;;;;;;5020923;28;20026;-86
2022/04/09 09:31:38;;;;;;;21.10;9.07;;;7.00;99.90;;;;;;5025375;28;20088;-83
2022/04/09 09:34:08;;;;;;;15.98;8.40;;;7.20;99.90;;;;;;5039129;28;20333;-86
2022/04/09 09:36:33;;;;;;;19.47;8.00;;;7.20;99.90;;;;;;5049927;28;20029;-86
2022/04/09 09:39:03;;;;;;;14.18;7.43;;;7.10;99.90;;;;;;5052209;28;20014;-86
2022/04/09 09:41:29;;;;;;;16.38;8.40;;;7.20;99.90;;;;;;5040733;28;20045;-87
2022/04/09 09:44:07;;;;;;;14.55;7.05;;;7.20;99.90;;;;;;5033042;28;20021;-89
2022/04/09 09:46:33;;;;;;;22.77;10.43;;;7.30;99.90;;;;;;5052661;28;20037;-85
2022/04/09 09:48:59;;;;;;;15.02;7.72;;;;;;;;;;5053440;28;20030;-88
2022/04/09 09:51:25;;;;;;;12.55;7.22;;;7.30;99.90;;;;;;5053611;28;20078;-87
2022/04/09 09:54:11;;;;;;;13.50;7.70;;;7.40;99.90;;;;;;5048934;28;20021;-86
2022/04/09 09:56:37;;;;;;;13.63;6.65;;;;;;;;;;5028123;28;20104;-84
2022/04/09 09:59:07;;;;;;;12.18;6.45;;;7.80;99.90;;;;;;5020663;28;20256;-85
2022/04/09 10:01:38;;;;;;;11.48;6.63;;;7.90;99.90;;;;;;5037241;28;20025;-82
2022/04/09 10:04:05;;;;;;;13.10;6.20;;;7.90;99.90;;;;;;5016385;28;20034;-84
2022/04/09 10:06:35;;;;;;;14.25;6.55;;;8.20;99.90;;;;;;5016439;28;20133;-85
2022/04/09 10:09:05;;;;;;;10.93;6.20;;;8.20;99.90;;;;;;5016886;28;20025;-84
2022/04/09 10:11:35;;;;;;;17.33;7.07;;;9.10;99.90;;;;;;5020928;28;20036;-86
2022/04/09 10:14:02;;;;;;;15.63;6.50;;;8.40;99.90;;;;;;5033369;28;20039;-85
2022/04/09 10:16:31;;;;;;;14.40;6.78;;;8.50;99.90;;;;;;5024628;28;20428;-84
2022/04/09 10:19:00;;;;;;;13.38;5.65;;;8.60;99.90;;;;;;5023855;28;20116;-85
2022/04/09 10:21:27;;;;;;;13.30;6.40;;;8.60;99.90;;;;;;5018846;28;20033;-86
2022/04/09 10:23:55;;;;;;;13.80;7.10;;;8.70;99.90;;;;;;5037612;28;20043;-84
2022/04/09 10:26:21;;;;;;;11.38;5.97;;;;;;;;;;5020598;28;20083;-85
2022/04/09 10:28:50;;;;;;;13.77;5.88;;;8.80;99.90;;;;;;5018758;28;20033;-84
2022/04/09 10:31:28;;;;;;;10.00;5.15;;;;;;;;;;5023163;28;20033;-84
2022/04/09 10:33:59;;;;;;;10.60;4.60;;;8.80;99.90;;;;;;5036523;28;20036;-82
2022/04/09 10:36:46;;;;;;;15.70;5.85;;;8.80;99.90;;;;;;5018610;28;20045;-84
2022/04/09 10:39:22;;;;;;;10.82;4.75;;;8.90;99.90;;;;;;5037505;28;20045;-85
2022/04/09 10:41:54;;;;;;;14.07;4.70;;;9.00;99.90;;;;;;5024844;28;20083;-85
2022/04/09 10:44:44;;;;;;;10.98;5.15;;;9.00;99.90;;;;;;5026067;28;20097;-84
2022/04/09 10:47:14;;;;;;;8.07;4.47;;;8.90;99.90;;;;;;5035411;28;20037;-84
2022/04/09 10:49:41;;;;;;;12.50;5.10;;;8.90;99.90;;;;;;5018116;28;20029;-85
2022/04/09 10:52:11;;;;;;;9.68;4.65;;;8.90;99.90;;;;;;5018035;28;20163;-85
2022/04/09 10:54:44;;;;;;;14.05;5.60;;;11.10;99.90;;;;;;5021313;28;20029;-82
2022/04/09 10:57:23;;;;;;;11.48;5.38;;;8.70;99.90;;;;;;5034341;28;20034;-85
2022/04/09 10:59:58;;;;;;;10.52;5.18;;;8.70;99.90;;;;;;5014210;28;20045;-84
2022/04/09 11:02:25;;;;;;;11.45;5.80;;;8.60;99.90;;;;;;5040375;28;20034;-87
2022/04/09 11:04:52;;;;;;;14.27;6.50;;;8.60;99.90;;;;;;5020421;28;20097;-83
2022/04/09 11:07:23;;;;;;;18.25;9.27;;;9.00;99.90;;;;;;5039501;28;20046;-82
2022/04/09 11:09:57;;;;;;;;;;;9.10;99.90;;;;;;4993114;28;20125;-85
2022/04/09 11:12:30;;;;;;;12.20;5.13;;;9.20;99.90;;;;;;5015435;28;19913;-84
2022/04/09 11:15:04;;;;;;;9.85;4.82;;;9.30;99.90;;;;;;5022577;28;20390;-82
2022/04/09 11:17:30;;;;;;;13.23;4.60;;;;;;;;;;5034145;28;20301;-84
2022/04/09 11:20:01;;;;;;;13.93;4.60;;;9.40;99.90;;;;;;5041461;28;20025;-86
2022/04/09 11:22:32;;;;;;;12.02;4.75;;;9.50;99.90;;;;;;5020524;28;20096;-81
2022/04/09 11:24:58;;;;;;;8.30;4.05;;;9.50;99.90;;;;;;5034409;28;20098;-86
2022/04/09 11:27:29;;;;;;;9.60;4.35;;;9.50;99.90;;;;;;5019571;28;20035;-84
2022/04/09 11:29:55;;;;;;;7.95;3.90;;;9.50;99.90;;;;;;5024655;28;20029;-85
2022/04/09 11:32:22;;;;;;;8.45;3.63;;;9.90;99.90;;;;;;5027624;28;20045;-83
2022/04/09 11:35:01;;;;;;;13.07;4.57;;;9.90;99.90;;;;;;5033334;28;20430;-85
2022/04/09 11:37:32;;;;;;;9.18;4.22;;;9.90;99.90;;;;;;5013708;28;20394;-86
2022/04/09 11:40:06;;;;;;;10.82;4.32;;;10.30;99.90;;;;;;5018594;28;20179;-84
2022/04/09 11:42:53;;;;;;;10.07;4.18;;;9.90;99.90;;;;;;5022210;28;20025;-86
2022/04/09 11:45:27;;;;;;;8.07;3.67;;;10.40;99.90;;;;;;5015818;28;20455;-81
2022/04/09 11:47:54;;;;;;;10.05;3.15;;;10.50;99.90;;;;;;5033317;28;20035;-82
2022/04/09 11:50:20;;;;;;;6.50;3.20;;;10.40;99.90;;;;;;5015617;28;20032;-85
2022/04/09 11:52:48;;;;;;;9.40;3.35;;;;;;;;;;4999299;28;20062;-83
2022/04/09 11:55:14;;;;;;;8.43;3.50;;;;;;;;;;5018534;28;20030;-84
2022/04/09 11:57:52;;;;;;;9.07;2.88;;;10.90;98.40;;;;;;5014934;28;20034;-83
2022/04/09 12:00:19;;;;;;;9.23;2.70;;;10.60;98.40;;;;;;5011678;28;20037;-87
2022/04/09 12:02:45;;;;;;;8.00;2.65;;;10.50;98.40;;;;;;5010542;28;20021;-84
2022/04/09 12:05:11;;;;;;;4.07;2.03;;;10.40;98.20;;;;;;5017968;28;20109;-84
2022/04/09 12:07:45;;;;;;;6.72;2.92;;;10.40;97.30;;;;;;5006440;28;20402;-84
2022/04/09 12:10:30;;;;;;;8.23;2.60;;;10.40;97.20;;;;;;5019246;28;20022;-85
2022/04/09 12:12:56;;;;;;;8.63;3.17;;;;;;;;;;5013528;28;20520;-86
2022/04/09 12:15:33;;;;;;;6.22;1.98;;;10.80;94.90;;;;;;5010805;28;20061;-87
2022/04/09 12:18:06;;;;;;;10.00;2.47;;;10.80;95.00;;;;;;4997301;28;20602;-84
2022/04/09 12:20:43;;;;;;;4.85;2.17;;;11.00;94.00;;;;;;5008540;28;20120;-83
2022/04/09 12:23:09;;;;;;;7.78;2.83;;;11.40;94.50;;;;;;4993103;28;20030;-83
2022/04/09 12:25:40;;;;;;;9.93;2.97;;;11.10;92.50;;;;;;5019206;28;20073;-85
2022/04/09 12:28:18;;;;;;;;;;;11.10;92.70;;;;;;5026603;28;20041;-88
2022/04/09 12:30:47;;;;;;;8.18;2.28;;;10.80;94.40;;;;;;5017501;28;19913;-84
2022/04/09 12:33:13;;;;;;;8.38;2.10;;;10.50;92.10;;;;;;5008568;28;20027;-86
2022/04/09 12:35:42;;;;;;;6.30;1.80;;;10.50;92.20;;;;;;4999001;28;20034;-84
2022/04/09 12:38:07;;;;;;;7.72;2.13;;;10.60;92.20;;;;;;5015572;28;20096;-84
2022/04/09 12:40:38;;;;;;;6.28;1.92;;;10.60;90.90;;;;;;5226465;23;20037;-81
2022/04/09 12:43:39;;;;;;;6.50;1.80;;;10.70;90.50;;;;;;5065667;28;20024;-81
2022/04/09 12:46:13;;;;;;;5.67;1.93;;;11.00;90.10;;;;;;5063739;28;20452;-81
2022/04/09 12:48:40;;;;;;;4.57;1.60;;;;;;;;;;5068225;28;20348;-81
2022/04/09 12:51:18;;;;;;;7.85;2.20;;;11.40;85.40;;;;;;5064175;28;20029;-81
2022/04/09 12:53:55;;;;;;;5.15;2.22;;;;;;;;;;5044937;28;20039;-81
2022/04/09 12:56:39;;;;;;;6.78;2.55;;;;;;;;;;5024344;28;20077;-81
2022/04/09 13:00:10;;;;;;;5.88;2.13;;;11.60;84.20;;;;;;5064039;28;20025;-81
2022/04/09 13:03:47;;;;;;;6.03;1.92;;;11.50;82.50;;;;;;5036451;28;20021;-82
2022/04/09 13:07:13;;;;;;;5.47;1.70;;;11.30;83.40;;;;;;5070329;28;20043;-82
2022/04/09 13:10:34;;;;;;;6.00;1.83;;;11.20;84.30;;;;;;5073216;28;20077;-82
2022/04/09 13:14:10;;;;;;;4.68;1.80;;;11.10;83.90;;;;;;5071044;28;20024;-82
2022/04/09 13:17:46;;;;;;;6.82;2.45;;;10.80;83.50;;;;;;4972063;28;20038;-82
2022/04/09 13:21:25;;;;;;;7.05;2.17;;;10.90;84.60;;;;;;4923049;29;20012;-81
2022/04/09 13:25:04;;;;;;;5.38;2.33;;;11.10;86.00;;;;;;4937922;29;20047;-81
2022/04/09 13:28:21;;;;;;;4.30;1.75;;;11.10;85.40;;;;;;4873209;29;20167;-81
2022/04/09 13:31:31;;;;;;;4.25;1.95;;;;;;;;;;4902903;29;20045;-82
2022/04/09 13:35:02;;;;;;;8.00;2.40;;;11.30;85.70;;;;;;4978989;28;20028;-81
2022/04/09 13:42:01;;;;;;;8.15;2.30;;;11.10;87.00;;;;;;4847951;29;20049;-82
2022/04/09 13:45:44;;;;;;;4.75;1.90;;;11.20;88.40;;;;;;4819578;29;20066;-81
2022/04/09 13:49:09;;;;;;;5.10;1.83;;;11.40;87.80;;;;;;4827764;29;20050;-82
2022/04/09 13:52:50;;;;;;;8.68;1.90;;;11.70;88.30;;;;;;4791595;30;20024;-82
2022/04/09 14:03:21;;;;;;;4.75;1.55;;;11.70;83.00;;;;;;4748840;30;20036;-82
2022/04/09 14:07:04;;;;;;;8.15;1.55;;;11.70;81.10;;;;;;4721643;30;20033;-82
2022/04/09 14:10:20;;;;;;;4.38;1.38;;;11.50;82.60;;;;;;4701685;30;20034;-81
2022/04/09 14:13:25;;;;;;;6.32;1.48;;;11.70;81.80;;;;;;4814782;29;20178;-80
2022/04/09 14:16:11;;;;;;;4.65;1.48;;;11.60;82.40;;;;;;4977880;28;20100;-82
2022/04/09 14:19:05;;;;;;;6.70;2.17;;;11.60;81.50;;;;;;5031694;28;20140;-81
2022/04/09 14:22:01;;;;;;;6.18;1.80;;;11.50;80.60;;;;;;5056933;28;20097;-81
2022/04/09 14:25:12;;;;;;;6.18;1.75;;;11.70;81.50;;;;;;5062380;28;20036;-81
2022/04/09 14:27:48;;;;;;;9.23;1.70;;;11.70;78.50;;;;;;5039623;28;20039;-81
2022/04/09 14:30:44;;;;;;;6.65;1.70;;;11.70;80.30;;;;;;5065472;28;20029;-81
2022/04/09 14:33:34;;;;;;;4.65;1.90;;;11.70;79.80;;;;;;5071792;28;20032;-80
2022/04/09 14:36:08;;;;;;;2.85;1.30;;;;;;;;;;5072203;28;20043;-81
2022/04/09 14:38:40;;;;;;;4.90;1.45;;;;;;;;;;5061668;28;20029;-81
2022/04/09 14:41:30;;;;;;;4.38;1.20;;;12.10;74.20;;;;;;5039501;28;20024;-80
2022/04/09 14:44:35;;;;;;;3.20;1.45;;;12.30;72.80;;;;;;5069434;28;20032;-81
2022/04/09 14:47:15;;;;;;;3.83;1.33;;;;;;;;;;5022463;28;20034;-83
2022/04/09 14:50:03;;;;;;;3.50;1.27;;;;;;;;;;5059554;28;20025;-82
2022/04/09 14:52:57;;;;;;;2.60;1.17;;;12.20;73.80;;;;;;5041120;28;20030;-79
2022/04/09 16:08:51;;;;;;;4.38;2.13;;;;;;;;;;5035018;28;20109;-82
2022/04/09 18:40:41;;;;;;;6.65;2.65;;;8.10;99.70;;;;;;5028227;23;20059;-82
2022/04/09 18:43:08;;;;;;;6.13;2.83;;;;;;;;;;5073058;28;20071;-84
2022/04/09 18:45:34;;;;;;;4.65;1.90;;;8.10;99.90;;;;;;5070848;28;20024;-84
2022/04/09 18:47:59;;;;;;;5.50;2.28;;;8.00;99.90;;;;;;5053306;28;20020;-83
2022/04/09 18:50:25;;;;;;;8.68;2.40;;;7.90;99.90;;;;;;5076660;28;20050;-81
2022/04/09 18:52:51;;;;;;;7.63;3.55;;;;;;;;;;5073612;28;20025;-83
2022/04/09 18:55:17;;;;;;;6.63;3.05;;;;;;;;;;5072716;28;20478;-85
2022/04/09 18:57:46;;;;;;;6.68;3.08;;;;;;;;;;5077253;28;20037;-83
2022/04/09 19:00:13;;;;;;;8.05;3.47;;;7.70;99.90;;;;;;5073560;28;20111;-83
2022/04/09 19:02:42;;;;;;;6.07;2.35;;;7.70;99.90;;;;;;5048004;28;20024;-84
2022/04/09 19:05:08;;;;;;;9.82;3.35;;;9.80;99.90;;;;;;5071093;28;20055;-84
2022/04/09 19:07:34;;;;;;;20.73;6.28;;;7.70;99.90;;;;;;5073999;28;20039;-83
2022/04/09 19:10:00;;;;;;;10.30;3.65;;;7.70;99.90;;;;;;5056424;28;20547;-81
2022/04/09 19:12:26;;;;;;;16.10;5.32;;;10.60;99.90;;;;;;5050449;28;20021;-84
2022/04/09 19:14:52;;;;;;;54.30;17.88;;;;;;;;;;5068022;28;20534;-81
2022/04/09 19:17:18;;;;;;;6.65;3.03;;;7.70;99.90;;;;;;5055057;28;20118;-85
2022/04/09 19:19:44;;;;;;;6.95;2.78;;;;;;;;;;5072041;28;20594;-84
2022/04/09 19:22:10;;;;;;;5.82;2.33;;;7.70;99.90;;;;;;5047699;28;20032;-83
2022/04/09 19:24:37;;;;;;;8.18;2.95;;;;;;;;;;5066829;28;20387;-82
2022/04/09 19:27:03;;;;;;;8.80;2.70;;;7.50;99.90;;;;;;5055030;28;20122;-82